createdAt,value
2018-11-14T00:00:57.508Z,9.00
2018-11-14T00:03:26.757Z,9.00
2018-11-14T00:05:56.173Z,9.00
2018-11-14T00:09:38.772Z,9.00
2018-11-14T00:12:11.535Z,9.00
2018-11-14T00:14:40.605Z,8.90
2018-11-14T00:17:10.401Z,8.90
2018-11-14T00:19:40.008Z,8.90
2018-11-14T00:22:09.125Z,8.90
2018-11-14T00:24:57.035Z,8.90
2018-11-14T00:27:26.267Z,8.90
2018-11-14T00:29:55.317Z,9.00
2018-11-14T00:32:24.438Z,8.90
2018-11-14T00:35:00.131Z,8.90
2018-11-14T00:37:29.172Z,9.00
2018-11-14T00:40:00.675Z,8.90
2018-11-14T00:42:29.801Z,8.90
2018-11-14T00:45:01.071Z,8.90
2018-11-14T00:47:30.381Z,8.90
2018-11-14T00:49:59.485Z,8.90
2018-11-14T00:52:28.823Z,8.90
2018-11-14T00:54:57.960Z,8.80
2018-11-14T00:57:33.460Z,8.80
2018-11-14T01:00:02.634Z,8.80
2018-11-14T01:02:32.163Z,8.80
2018-11-14T01:05:01.221Z,8.80
2018-11-14T01:07:36.138Z,8.80
2018-11-14T01:10:07.738Z,8.80
2018-11-14T01:12:36.904Z,8.70
2018-11-14T01:15:08.980Z,8.70
2018-11-14T01:17:38.671Z,8.70
2018-11-14T01:20:10.109Z,8.70
2018-11-14T01:22:39.369Z,8.70
2018-11-14T01:25:35.510Z,8.70
2018-11-14T01:28:05.351Z,8.70
2018-11-14T01:30:34.430Z,8.60
2018-11-14T01:33:03.502Z,8.60
2018-11-14T01:38:38.814Z,8.60
2018-11-14T01:41:07.962Z,8.70
2018-11-14T01:43:37.044Z,8.60
2018-11-14T01:46:08.218Z,8.60
2018-11-14T01:48:43.411Z,8.60
2018-11-14T01:51:13.318Z,8.60
2018-11-14T01:57:12.420Z,8.60
2018-11-14T01:59:42.500Z,8.60
2018-11-14T02:02:14.740Z,8.50
2018-11-14T02:04:44.004Z,8.50
2018-11-14T02:07:15.450Z,8.50
2018-11-14T02:09:44.558Z,8.50
2018-11-14T02:12:13.739Z,8.50
2018-11-14T02:14:47.558Z,8.50
2018-11-14T02:17:48.148Z,8.40
2018-11-14T02:20:44.576Z,8.40
2018-11-14T02:23:14.230Z,8.40
2018-11-14T02:25:43.330Z,8.40
2018-11-14T02:28:12.354Z,8.40
2018-11-14T02:30:41.380Z,8.30
2018-11-14T02:33:21.689Z,8.30
2018-11-14T02:35:50.861Z,8.30
2018-11-14T02:38:20.973Z,8.30
2018-11-14T02:40:50.138Z,8.20
2018-11-14T02:46:07.524Z,8.20
2018-11-14T02:48:36.652Z,8.10
2018-11-14T02:52:06.572Z,8.20
2018-11-14T02:54:52.266Z,8.20
2018-11-14T02:57:21.429Z,8.10
2018-11-14T02:59:50.523Z,8.10
2018-11-14T03:02:19.580Z,8.10
2018-11-14T03:04:48.929Z,8.10
2018-11-14T03:07:18.107Z,8.00
2018-11-14T03:12:55.146Z,8.00
2018-11-14T03:15:24.276Z,8.00
2018-11-14T03:18:31.722Z,8.00
2018-11-14T03:21:00.909Z,8.00
2018-11-14T03:23:29.938Z,8.00
2018-11-14T03:29:10.257Z,7.90
2018-11-14T03:34:57.581Z,7.90
2018-11-14T03:37:29.325Z,7.90
2018-11-14T03:39:58.449Z,7.90
2018-11-14T03:45:47.171Z,8.00
2018-11-14T03:48:29.668Z,8.00
2018-11-14T03:50:58.868Z,8.00
2018-11-14T03:53:27.940Z,8.00
2018-11-14T03:56:01.979Z,8.10
2018-11-14T03:58:31.163Z,8.10
2018-11-14T04:01:00.233Z,8.20
2018-11-14T04:03:29.434Z,8.20
2018-11-14T04:05:58.469Z,8.20
2018-11-14T04:08:35.318Z,8.20
2018-11-14T04:24:39.076Z,8.10
2018-11-14T04:27:08.201Z,8.00
2018-11-14T04:29:37.453Z,8.00
2018-11-14T04:32:07.359Z,8.00
2018-11-14T04:34:36.521Z,8.00
2018-11-14T04:37:09.220Z,8.00
2018-11-14T04:39:38.355Z,8.10
2018-11-14T04:42:09.683Z,8.10
2018-11-14T04:45:44.231Z,8.20
2018-11-14T04:48:15.083Z,8.20
2018-11-14T04:51:10.487Z,8.30
2018-11-14T04:53:39.621Z,8.40
2018-11-14T04:56:13.975Z,8.40
2018-11-14T04:59:09.477Z,8.40
2018-11-14T05:01:44.585Z,8.40
2018-11-14T05:04:13.863Z,8.40
2018-11-14T05:06:43.159Z,8.40
2018-11-14T05:09:13.363Z,8.50
2018-11-14T05:11:42.815Z,8.50
2018-11-14T05:14:13.871Z,8.50
2018-11-14T05:17:25.374Z,8.60
2018-11-14T05:19:54.573Z,8.60
2018-11-14T05:22:23.678Z,8.50
2018-11-14T05:24:52.866Z,8.50
2018-11-14T05:27:22.091Z,8.50
2018-11-14T05:29:52.213Z,8.60
2018-11-14T05:32:46.580Z,8.60
2018-11-14T05:48:47.989Z,8.70
2018-11-14T05:51:17.331Z,8.70
2018-11-14T05:56:48.554Z,8.70
2018-11-14T05:59:50.099Z,8.90
2018-11-14T06:02:19.738Z,8.80
2018-11-14T06:04:54.016Z,8.80
2018-11-14T06:07:24.072Z,8.80
2018-11-14T06:09:53.771Z,8.80
2018-11-14T06:12:22.958Z,8.80
2018-11-14T06:14:54.362Z,8.90
2018-11-14T06:17:24.271Z,8.90
2018-11-14T06:19:54.737Z,8.90
2018-11-14T06:22:24.812Z,8.80
2018-11-14T06:24:54.133Z,8.70
2018-11-14T06:27:23.202Z,8.70
2018-11-14T06:29:52.358Z,8.70
2018-11-14T06:32:24.776Z,8.80
2018-11-14T06:34:56.840Z,8.90
2018-11-14T06:38:41.606Z,8.80
2018-11-14T06:41:33.358Z,8.90
2018-11-14T06:44:02.704Z,9.00
2018-11-14T06:49:31.697Z,9.00
2018-11-14T06:52:02.144Z,8.90
2018-11-14T06:54:31.377Z,8.90
2018-11-14T07:00:06.379Z,9.00
2018-11-14T07:02:38.337Z,9.00
2018-11-14T07:05:31.278Z,9.10
2018-11-14T07:08:30.478Z,9.20
2018-11-14T07:11:02.369Z,9.20
2018-11-14T07:13:34.266Z,9.10
2018-11-14T07:16:05.271Z,9.10
2018-11-14T07:18:34.642Z,9.30
2018-11-14T07:22:39.217Z,9.30
2018-11-14T07:25:32.999Z,9.40
2018-11-14T07:28:02.523Z,9.30
2018-11-14T07:33:31.113Z,9.20
2018-11-14T07:36:00.413Z,9.30
2018-11-14T07:38:38.649Z,9.30
2018-11-14T07:41:10.175Z,9.40
2018-11-14T07:43:39.898Z,9.40
2018-11-14T07:46:09.683Z,9.50
2018-11-14T07:48:39.452Z,9.60
2018-11-14T07:51:08.602Z,9.50
2018-11-14T07:53:37.767Z,9.50
2018-11-14T07:56:06.950Z,9.40
2018-11-14T07:58:36.334Z,9.60
2018-11-14T08:01:05.729Z,9.70
2018-11-14T08:03:34.797Z,9.70
2018-11-14T08:06:16.106Z,9.60
2018-11-14T08:08:45.609Z,9.60
2018-11-14T08:11:18.952Z,9.70
2018-11-14T08:13:49.218Z,9.70
2018-11-14T08:22:18.609Z,9.60
2018-11-14T08:24:48.120Z,9.60
2018-11-14T08:43:08.030Z,9.60
2018-11-14T08:45:53.397Z,9.70
2018-11-14T08:48:25.754Z,9.60
2018-11-14T09:23:39.757Z,9.70
2018-11-14T09:26:24.027Z,10.00
2018-11-14T09:29:42.111Z,10.10
2018-11-14T09:32:17.187Z,10.20
2018-11-14T09:34:46.529Z,10.30
2018-11-14T09:38:01.813Z,10.40
2018-11-14T09:40:31.702Z,10.40
2018-11-14T09:43:01.448Z,10.30
2018-11-14T09:45:31.288Z,10.20
2018-11-14T09:56:33.450Z,10.20
2018-11-14T09:59:05.716Z,10.40
2018-11-14T10:11:46.690Z,10.40
2018-11-14T10:17:32.056Z,10.60
2018-11-14T10:20:12.555Z,10.60
2018-11-14T10:25:55.138Z,10.60
2018-11-14T10:28:30.221Z,10.70
2018-11-14T10:34:19.344Z,11.20
2018-11-14T10:36:51.652Z,11.40
2018-11-14T10:39:20.716Z,11.50
2018-11-14T10:41:49.835Z,11.50
2018-11-14T10:44:19.259Z,11.60
2018-11-14T10:46:48.657Z,11.70
2018-11-14T10:52:44.570Z,11.70
2018-11-14T10:58:09.895Z,11.60
2018-11-14T11:10:12.541Z,11.30
2018-11-14T11:13:07.884Z,11.50
2018-11-14T11:18:20.884Z,11.60
2018-11-14T11:42:54.969Z,11.40
2018-11-14T11:45:24.286Z,11.30
2018-11-14T12:46:51.916Z,11.90
2018-11-14T12:49:31.168Z,11.90
2018-11-14T14:29:08.106Z,11.60
2018-11-14T14:39:06.746Z,11.40
2018-11-14T14:41:39.356Z,11.40
2018-11-14T14:44:16.947Z,11.30
2018-11-14T14:47:42.334Z,11.30
2018-11-14T14:50:45.345Z,11.30
2018-11-14T15:38:15.077Z,10.90
2018-11-14T15:50:07.255Z,11.00
